Time;durP1;ratioP1;P1;durP2;ratioP2;P2;SDS_P1;SDS_P2;PMS_P1;PMS_P2;Temp;Humidity;BMP_temperature;BMP_pressure;BME280_temperature;BME280_humidity;BME280_pressure;Samples;Min_cycle;Max_cycle;Signal;HPM_P1;HPM_P2
2023/11/17 00:02:04;;;;;;;1.60;0.90;;;;;;;6.56;100.00;99807.17;106020;1258;60615;-65
2023/11/17 00:04:31;;;;;;;1.90;1.00;;;;;;;6.53;100.00;99806.88;105700;1251;60032;-63
2023/11/17 00:06:59;;;;;;;2.00;1.00;;;;;;;6.47;100.00;99805.45;105667;1256;73116;-64
2023/11/17 00:09:27;;;;;;;2.30;1.30;;;;;;;6.41;100.00;99809.86;105751;1257;65645;-63
2023/11/17 00:11:55;;;;;;;2.70;1.50;;;;;;;6.36;100.00;99807.20;105969;1253;72688;-61
2023/11/17 00:14:23;;;;;;;2.70;1.60;;;;;;;6.29;100.00;99809.62;105643;1258;62575;-61
2023/11/17 00:16:50;;;;;;;3.00;1.30;;;;;;;6.24;100.00;99812.67;105566;1257;59520;-60
2023/11/17 00:19:18;;;;;;;2.80;1.30;;;;;;;6.18;100.00;99812.59;105735;1251;71836;-62
2023/11/17 00:21:46;;;;;;;2.50;1.20;;;;;;;6.12;100.00;99812.50;105769;1257;65674;-62
2023/11/17 00:24:14;;;;;;;3.80;2.00;;;;;;;6.08;100.00;99811.86;105847;1253;71654;-61
2023/11/17 00:26:42;;;;;;;2.70;1.40;;;;;;;6.03;100.00;99818.27;105647;1250;61752;-62
2023/11/17 00:29:10;;;;;;;3.60;1.80;;;;;;;5.99;100.00;99818.92;105475;1250;59737;-62
2023/11/17 00:31:37;;;;;;;2.70;1.70;;;;;;;5.96;100.00;99817.23;105662;1252;71825;-62
2023/11/17 00:34:05;;;;;;;3.00;1.90;;;;;;;5.92;100.00;99813.79;105804;1259;65634;-63
2023/11/17 00:36:34;;;;;;;2.50;1.50;;;;;;;5.89;100.00;99822.52;105504;1258;71448;-60
2023/11/17 00:39:02;;;;;;;2.50;1.30;;;;;;;5.86;100.00;99819.37;105701;1253;61614;-61
2023/11/17 00:41:30;;;;;;;2.70;1.30;;;;;;;5.84;100.00;99820.34;105723;1254;60112;-61
2023/11/17 00:43:59;;;;;;;2.60;1.50;;;;;;;5.80;100.00;99822.79;106104;1251;73086;-64
2023/11/17 00:46:26;;;;;;;3.00;1.60;;;;;;;5.78;100.00;99823.77;105787;1251;67039;-61
2023/11/17 00:48:56;;;;;;;3.20;1.30;;;;;;;5.76;100.00;99821.90;105849;1256;71376;-62
2023/11/17 00:51:25;;;;;;;2.30;1.30;;;;;;;5.74;100.00;99828.73;105772;1250;61724;-64
2023/11/17 00:53:52;;;;;;;3.20;1.90;;;;;;;5.73;100.00;99827.17;105959;1250;59564;-63
2023/11/17 00:56:20;;;;;;;3.40;1.80;;;;;;;5.71;100.00;99835.51;105698;1256;73600;-62
2023/11/17 00:58:48;;;;;;;2.60;1.70;;;;;;;5.69;100.00;99838.29;105695;1256;66240;-62
2023/11/17 01:01:17;;;;;;;2.70;1.50;;;;;;;5.67;100.00;99839.17;105638;1253;72644;-61
2023/11/17 01:03:46;;;;;;;2.80;1.70;;;;;;;5.64;100.00;99842.30;105699;1259;60445;-64
2023/11/17 01:06:15;;;;;;;2.40;1.20;;;;;;;5.63;100.00;99847.43;105852;1256;60721;-62
2023/11/17 01:08:42;;;;;;;3.60;1.70;;;;;;;5.63;100.00;99846.04;105688;1257;73074;-62
2023/11/17 01:11:12;;;;;;;3.20;1.90;;;;;;;5.63;100.00;99848.78;105730;1250;67176;-63
2023/11/17 01:13:40;;;;;;;3.20;2.00;;;;;;;5.63;100.00;99851.85;105710;1250;72632;-63
2023/11/17 01:16:09;;;;;;;3.30;1.70;;;;;;;5.62;100.00;99851.12;105659;1259;61061;-63
2023/11/17 01:18:37;;;;;;;3.40;2.00;;;;;;;5.59;100.00;99847.91;105797;1250;60074;-63
2023/11/17 01:21:05;;;;;;;3.40;1.40;;;;;;;5.57;100.00;99844.33;105704;1257;73041;-62
2023/11/17 01:23:33;;;;;;;3.70;1.70;;;;;;;5.56;100.00;99842.88;105678;1258;65419;-63
2023/11/17 01:26:01;;;;;;;3.20;2.00;;;;;;;5.54;100.00;99843.67;105695;1250;72705;-63
2023/11/17 01:28:30;;;;;;;3.40;1.70;;;;;;;5.53;100.00;99847.22;105764;1259;60467;-63
2023/11/17 01:30:57;;;;;;;3.20;1.90;;;;;;;5.51;100.00;99842.02;105727;1250;59858;-62
2023/11/17 01:33:25;;;;;;;3.50;2.10;;;;;;;5.50;100.00;99841.19;105843;1250;72024;-63
2023/11/17 01:35:53;;;;;;;2.60;1.40;;;;;;;5.48;100.00;99840.81;105429;1257;66995;-63
2023/11/17 01:38:21;;;;;;;2.70;1.60;;;;;;;5.45;100.00;99838.19;105437;1259;71443;-62
2023/11/17 01:40:48;;;;;;;3.10;1.90;;;;;;;5.42;100.00;99836.27;105679;1257;61806;-62
2023/11/17 01:43:17;;;;;;;2.40;1.60;;;;;;;5.40;100.00;99840.98;105812;1251;60181;-62
2023/11/17 01:45:44;;;;;;;3.80;1.90;;;;;;;5.37;100.00;99841.07;105694;1256;73205;-62
2023/11/17 01:48:14;;;;;;;2.80;1.60;;;;;;;5.33;100.00;99842.90;105762;1256;65832;-61
2023/11/17 01:50:42;;;;;;;2.90;1.90;;;;;;;5.30;100.00;99845.06;105710;1257;71459;-62
2023/11/17 01:53:11;;;;;;;3.60;2.00;;;;;;;5.28;100.00;99844.66;105690;1254;60474;-61
2023/11/17 01:55:40;;;;;;;3.30;1.90;;;;;;;5.25;100.00;99844.98;105707;1257;59528;-62
2023/11/17 01:58:08;;;;;;;2.90;1.70;;;;;;;5.23;100.00;99848.61;105670;1256;73128;-63
2023/11/17 02:00:36;;;;;;;3.30;1.80;;;;;;;5.21;100.00;99850.73;105694;1259;65634;-62
2023/11/17 02:03:03;;;;;;;3.60;1.80;;;;;;;5.18;100.00;99853.23;105715;1256;72921;-62
2023/11/17 02:05:32;;;;;;;3.40;2.00;;;;;;;5.17;100.00;99847.20;105553;1259;61709;-65
2023/11/17 02:08:19;;;;;;;3.60;2.10;;;;;;;5.15;100.00;99852.36;105751;1257;59602;-65
2023/11/17 02:10:54;;;;;;;4.20;2.50;;;;;;;5.14;100.00;99851.02;105778;1259;73070;-63
2023/11/17 02:13:27;;;;;;;3.50;2.40;;;;;;;5.12;100.00;99851.55;105833;1250;65629;-66
2023/11/17 02:15:56;;;;;;;4.00;2.50;;;;;;;5.11;100.00;99851.85;105729;1253;71454;-63
2023/11/17 02:18:23;;;;;;;5.40;2.90;;;;;;;5.10;100.00;99851.95;105760;1250;60771;-61
2023/11/17 02:20:52;;;;;;;4.40;2.20;;;;;;;5.09;100.00;99852.80;105541;1250;59657;-62
2023/11/17 02:23:20;;;;;;;3.80;2.30;;;;;;;5.08;100.00;99851.86;105732;1256;71803;-62
2023/11/17 02:26:15;;;;;;;3.90;2.40;;;;;;;5.08;100.00;99850.84;105636;1258;65656;-62
2023/11/17 02:28:59;;;;;;;4.90;2.50;;;;;;;5.07;100.00;99856.59;105706;1257;73645;-62
2023/11/17 02:31:32;;;;;;;3.90;2.40;;;;;;;5.07;100.00;99860.17;105656;1258;61171;-62
2023/11/17 02:34:08;;;;;;;3.70;2.30;;;;;;;5.08;100.00;99867.69;105960;1250;60080;-64
2023/11/17 02:36:38;;;;;;;4.10;2.30;;;;;;;5.08;100.00;99872.50;105547;1258;73015;-62
2023/11/17 02:39:25;;;;;;;4.10;2.60;;;;;;;5.09;100.00;99876.86;105703;1259;66917;-62
2023/11/17 02:41:57;;;;;;;3.70;2.80;;;;;;;5.09;100.00;99880.80;105489;1259;72715;-62
2023/11/17 02:44:29;;;;;;;4.10;2.60;;;;;;;5.10;100.00;99878.38;105733;1252;60466;-61
2023/11/17 02:47:03;;;;;;;3.60;2.30;;;;;;;5.10;100.00;99880.73;105780;1256;59990;-61
2023/11/17 02:49:41;;;;;;;5.10;2.90;;;;;;;5.12;100.00;99880.74;105876;1254;71857;-63
2023/11/17 02:52:15;;;;;;;4.00;2.50;;;;;;;5.14;100.00;99883.42;105458;1259;66989;-61
2023/11/17 02:54:42;;;;;;;4.40;2.90;;;;;;;5.16;100.00;99887.56;105604;1259;71270;-61
2023/11/17 02:57:10;;;;;;;4.00;2.30;;;;;;;5.17;100.00;99889.05;105499;1257;60942;-61
2023/11/17 02:59:38;;;;;;;4.90;3.00;;;;;;;5.16;100.00;99892.03;105171;1260;60033;-61
2023/11/17 03:02:05;;;;;;;5.40;2.50;;;;;;;5.15;100.00;99892.47;105576;1255;73139;-62
2023/11/17 03:04:37;;;;;;;3.80;2.50;;;;;;;5.14;100.00;99896.89;108247;1256;65825;-62
2023/11/17 03:07:04;;;;;;;4.60;2.60;;;;;;;5.14;100.00;99900.31;105577;1254;72139;-64
2023/11/17 03:09:32;;;;;;;4.60;2.90;;;;;;;5.13;100.00;99901.25;105408;1252;60489;-62
2023/11/17 03:12:00;;;;;;;4.10;2.90;;;;;;;5.12;100.00;99899.32;105711;1253;60514;-61
2023/11/17 03:14:28;;;;;;;3.90;2.70;;;;;;;5.11;100.00;99904.09;105740;1253;73993;-61
2023/11/17 03:16:58;;;;;;;3.70;2.50;;;;;;;5.08;100.00;99905.86;105430;1254;67228;-61
2023/11/17 03:19:27;;;;;;;4.50;2.80;;;;;;;5.07;100.00;99905.83;105607;1254;73230;-62
2023/11/17 03:21:56;;;;;;;3.50;2.40;;;;;;;5.07;100.00;99909.01;105629;1252;61717;-61
2023/11/17 03:24:26;;;;;;;4.70;2.80;;;;;;;5.05;100.00;99912.45;105852;1256;60440;-62
2023/11/17 03:26:55;;;;;;;4.50;2.70;;;;;;;5.02;100.00;99912.06;105886;1251;72642;-63
2023/11/17 03:29:24;;;;;;;4.30;2.50;;;;;;;4.99;100.00;99911.81;105457;1251;68376;-61
2023/11/17 03:31:52;;;;;;;3.70;2.50;;;;;;;4.97;100.00;99913.11;106083;1251;72811;-61
2023/11/17 03:34:23;;;;;;;3.90;2.70;;;;;;;4.95;100.00;99909.19;105754;1251;62027;-61
2023/11/17 03:36:56;;;;;;;4.60;3.40;;;;;;;4.94;100.00;99912.02;105673;1250;60574;-63
2023/11/17 03:39:28;;;;;;;4.00;2.90;;;;;;;4.92;100.00;99915.63;105592;1257;74384;-62
2023/11/17 03:41:57;;;;;;;4.50;3.00;;;;;;;4.91;100.00;99914.59;105823;1253;65536;-62
2023/11/17 03:44:24;;;;;;;5.40;3.20;;;;;;;4.88;100.00;99917.55;105836;1257;72686;-62
2023/11/17 03:46:55;;;;;;;4.10;3.20;;;;;;;4.88;100.00;99916.25;105779;1260;60731;-64
2023/11/17 03:49:24;;;;;;;4.50;3.20;;;;;;;4.88;100.00;99919.67;105712;1253;60385;-63
2023/11/17 03:51:55;;;;;;;5.30;3.80;;;;;;;4.87;100.00;99917.83;105660;1257;72869;-62
2023/11/17 03:54:23;;;;;;;5.30;4.00;;;;;;;4.85;100.00;99917.34;105607;1254;66966;-61
2023/11/17 03:56:52;;;;;;;5.20;4.00;;;;;;;4.85;100.00;99916.36;105954;1256;71432;-62
2023/11/17 03:59:21;;;;;;;6.30;4.20;;;;;;;4.86;100.00;99919.84;105784;1258;61702;-61
2023/11/17 04:01:49;;;;;;;5.30;4.10;;;;;;;4.85;100.00;99924.91;105846;1258;60428;-61
2023/11/17 04:04:18;;;;;;;5.90;4.20;;;;;;;4.85;100.00;99926.68;105866;1257;73934;-61
2023/11/17 04:06:49;;;;;;;5.50;4.20;;;;;;;4.86;100.00;99931.01;105983;1256;67037;-63
2023/11/17 04:09:21;;;;;;;7.90;5.00;;;;;;;4.86;100.00;99935.33;105429;1258;72794;-61
2023/11/17 04:11:50;;;;;;;5.40;4.30;;;;;;;4.85;100.00;99927.16;105575;1255;61707;-61
2023/11/17 04:14:22;;;;;;;5.40;4.30;;;;;;;4.85;100.00;99930.30;105666;1256;60329;-62
2023/11/17 04:16:50;;;;;;;5.90;4.30;;;;;;;4.85;100.00;99930.11;105639;1253;72638;-62
2023/11/17 04:19:19;;;;;;;5.10;4.10;;;;;;;4.85;100.00;99928.08;105763;1258;67055;-63
2023/11/17 04:21:49;;;;;;;4.80;4.00;;;;;;;4.85;100.00;99932.66;105670;1259;70625;-60
2023/11/17 04:24:17;;;;;;;5.40;4.20;;;;;;;4.85;100.00;99932.01;105873;1254;60397;-61
2023/11/17 04:26:46;;;;;;;5.40;4.30;;;;;;;4.83;100.00;99936.27;105681;1255;60530;-61
2023/11/17 04:29:14;;;;;;;5.90;4.10;;;;;;;4.81;100.00;99941.52;105704;1257;73869;-62
2023/11/17 04:31:42;;;;;;;5.30;4.10;;;;;;;4.80;100.00;99939.36;105746;1256;67064;-60
2023/11/17 04:34:13;;;;;;;5.40;4.20;;;;;;;4.78;100.00;99939.61;105608;1259;72701;-61
2023/11/17 04:36:40;;;;;;;6.40;4.60;;;;;;;4.77;100.00;99945.44;105508;1256;60859;-60
2023/11/17 04:39:17;;;;;;;5.50;4.00;;;;;;;4.75;100.00;99946.48;105574;1252;60531;-60
2023/11/17 04:41:45;;;;;;;5.00;3.80;;;;;;;4.75;100.00;99949.44;105690;1256;73903;-60
2023/11/17 04:44:13;;;;;;;5.40;3.70;;;;;;;4.74;100.00;99951.86;106018;1257;65654;-61
2023/11/17 04:46:41;;;;;;;5.80;4.40;;;;;;;4.73;100.00;99948.02;105921;1258;71734;-59
2023/11/17 04:49:09;;;;;;;6.00;4.20;;;;;;;4.72;100.00;99948.45;105701;1255;61533;-59
2023/11/17 04:51:36;;;;;;;5.30;4.00;;;;;;;4.72;100.00;99944.83;105671;1254;60312;-59
2023/11/17 04:54:05;;;;;;;5.30;3.50;;;;;;;4.73;100.00;99947.71;105721;1253;72565;-60
2023/11/17 04:56:33;;;;;;;5.10;3.70;;;;;;;4.73;100.00;99948.20;105562;1258;65763;-63
2023/11/17 04:59:02;;;;;;;5.30;3.90;;;;;;;4.74;100.00;99952.58;105851;1255;72682;-61
2023/11/17 05:01:30;;;;;;;5.60;4.10;;;;;;;4.76;100.00;99955.95;105815;1254;60510;-62
2023/11/17 05:04:00;;;;;;;4.80;3.90;;;;;;;4.79;100.00;99950.88;105616;1257;60304;-61
2023/11/17 05:06:28;;;;;;;5.30;3.70;;;;;;;4.80;100.00;99950.75;105761;1256;74264;-62
2023/11/17 05:08:56;;;;;;;4.40;3.10;;;;;;;4.81;100.00;99950.98;105755;1259;65710;-62
2023/11/17 05:11:27;;;;;;;4.20;2.80;;;;;;;4.81;100.00;99949.77;105720;1257;71378;-61
2023/11/17 05:13:54;;;;;;;4.60;3.20;;;;;;;4.82;100.00;99950.45;105638;1266;60435;-60
2023/11/17 05:16:22;;;;;;;4.90;3.20;;;;;;;4.82;100.00;99953.14;105727;1256;60396;-61
2023/11/17 05:18:50;;;;;;;4.40;3.10;;;;;;;4.84;100.00;99950.88;105670;1256;72757;-60
2023/11/17 05:21:18;;;;;;;5.10;3.70;;;;;;;4.85;100.00;99953.52;105798;1254;67108;-60
2023/11/17 05:23:46;;;;;;;4.40;3.10;;;;;;;4.87;100.00;99957.41;105691;1258;72786;-60
2023/11/17 05:26:13;;;;;;;6.00;3.30;;;;;;;4.90;100.00;99960.82;105681;1258;61680;-61
2023/11/17 05:36:19;;;;;;;6.50;4.20;;;;;;;5.00;100.00;99973.75;102523;1294;600945;-60
2023/11/17 05:38:48;;;;;;;5.80;3.80;;;;;;;5.01;100.00;99970.89;104936;1272;59170;-60
2023/11/17 05:41:17;;;;;;;5.70;3.70;;;;;;;5.02;100.00;99971.98;104931;1264;63213;-61
2023/11/17 05:43:47;;;;;;;5.20;3.80;;;;;;;5.03;100.00;99977.01;104902;1269;72287;-61
2023/11/17 05:46:15;;;;;;;5.40;3.50;;;;;;;5.06;100.00;99983.27;105019;1269;67061;-61
2023/11/17 05:48:42;;;;;;;4.50;3.10;;;;;;;5.07;100.00;99987.77;104863;1269;72752;-61
2023/11/17 05:51:11;;;;;;;4.30;3.10;;;;;;;5.09;100.00;99991.60;104636;1263;61423;-61
2023/11/17 05:53:40;;;;;;;5.50;4.10;;;;;;;5.10;100.00;99992.82;105584;1261;59473;-62
2023/11/17 05:56:07;;;;;;;4.90;3.50;;;;;;;5.09;100.00;99995.34;105307;1258;71019;-60
2023/11/17 05:58:35;;;;;;;5.20;4.10;;;;;;;5.10;100.00;99992.53;105391;1270;67013;-60
2023/11/17 06:01:03;;;;;;;4.80;3.70;;;;;;;5.11;100.00;99988.65;105333;1262;71049;-60
2023/11/17 06:03:31;;;;;;;4.50;3.20;;;;;;;5.13;100.00;99990.33;105357;1262;60493;-60
2023/11/17 06:05:59;;;;;;;5.70;4.00;;;;;;;5.16;100.00;99989.43;105090;1258;59551;-60
2023/11/17 06:08:31;;;;;;;5.20;4.20;;;;;;;5.16;100.00;99998.13;105319;1258;72134;-60
2023/11/17 06:10:59;;;;;;;4.30;3.00;;;;;;;5.17;100.00;100000.83;105330;1258;65530;-60
2023/11/17 06:13:27;;;;;;;4.20;3.10;;;;;;;5.18;100.00;100005.16;105343;1260;72717;-61
2023/11/17 06:15:55;;;;;;;4.70;3.10;;;;;;;5.20;100.00;100006.05;105327;1258;61699;-60
2023/11/17 06:18:23;;;;;;;4.40;3.00;;;;;;;5.22;100.00;100007.39;105398;1257;59729;-60
2023/11/17 06:20:51;;;;;;;4.00;2.70;;;;;;;5.24;100.00;100008.21;105307;1258;72747;-60
2023/11/17 06:23:18;;;;;;;4.60;3.40;;;;;;;5.27;100.00;100012.33;105346;1255;65622;-59
2023/11/17 06:25:47;;;;;;;4.70;3.10;;;;;;;5.29;100.00;100020.95;105309;1257;72738;-60
2023/11/17 06:28:15;;;;;;;4.50;3.20;;;;;;;5.31;100.00;100025.88;105415;1258;61722;-61
2023/11/17 06:30:43;;;;;;;5.20;3.30;;;;;;;5.33;100.00;100027.62;105714;1256;59708;-61
2023/11/17 06:33:11;;;;;;;4.50;3.00;;;;;;;5.34;100.00;100027.29;105710;1256;73082;-63
2023/11/17 06:35:39;;;;;;;4.80;3.30;;;;;;;5.35;100.00;100025.83;105577;1257;66007;-62
2023/11/17 06:38:08;;;;;;;4.60;3.20;;;;;;;5.35;100.00;100028.41;105706;1251;72646;-60
2023/11/17 06:40:36;;;;;;;4.80;3.10;;;;;;;5.36;100.00;100026.83;105772;1258;61087;-60
2023/11/17 06:43:03;;;;;;;5.00;3.30;;;;;;;5.35;100.00;100028.58;105901;1253;60179;-62
2023/11/17 06:45:32;;;;;;;4.40;2.90;;;;;;;5.37;100.00;100023.95;105406;1258;71840;-59
2023/11/17 06:48:00;;;;;;;4.70;3.50;;;;;;;5.38;100.00;100017.80;105724;1256;66880;-60
2023/11/17 06:50:28;;;;;;;4.90;3.50;;;;;;;5.38;100.00;100017.09;105668;1255;71396;-60
2023/11/17 06:52:56;;;;;;;4.90;3.60;;;;;;;5.38;100.00;100019.22;105959;1251;61790;-61
2023/11/17 06:55:24;;;;;;;4.90;3.20;;;;;;;5.39;100.00;100016.67;105626;1257;60105;-60
2023/11/17 06:57:53;;;;;;;5.30;3.30;;;;;;;5.43;100.00;100018.27;105734;1257;73063;-60
2023/11/17 07:00:20;;;;;;;5.30;3.40;;;;;;;5.49;100.00;100020.23;105689;1251;67029;-60
2023/11/17 07:02:48;;;;;;;4.60;3.30;;;;;;;5.56;100.00;100023.39;105924;1256;72519;-62
2023/11/17 07:05:17;;;;;;;5.30;3.70;;;;;;;5.61;100.00;100028.52;105514;1251;61773;-59
2023/11/17 07:07:44;;;;;;;6.40;4.20;;;;;;;5.67;100.00;100027.63;105771;1251;59529;-60
2023/11/17 07:10:14;;;;;;;6.30;4.00;;;;;;;5.71;100.00;100029.10;105736;1257;72984;-60
2023/11/17 07:12:44;;;;;;;4.70;3.60;;;;;;;5.74;100.00;100033.25;105986;1253;65900;-62
2023/11/17 07:15:13;;;;;;;6.70;3.80;;;;;;;5.77;100.00;100039.70;105713;1257;71096;-61
2023/11/17 07:17:41;;;;;;;5.80;4.20;;;;;;;5.79;100.00;100041.50;105872;1260;60556;-60
2023/11/17 07:20:11;;;;;;;5.50;3.50;;;;;;;5.82;100.00;100043.48;105867;1251;59530;-61
2023/11/17 07:22:41;;;;;;;6.00;4.60;;;;;;;5.84;100.00;100043.30;105882;1257;73009;-61
2023/11/17 07:25:10;;;;;;;5.80;4.00;;;;;;;5.85;100.00;100045.70;105719;1251;64996;-60
2023/11/17 07:27:39;;;;;;;6.40;4.40;;;;;;;5.88;100.00;100048.74;105878;1254;71388;-60
2023/11/17 07:30:12;;;;;;;6.30;4.20;;;;;;;5.89;100.00;100050.20;105874;1251;61771;-60
2023/11/17 07:32:41;;;;;;;5.60;4.20;;;;;;;5.88;100.00;100049.81;105656;1251;59789;-61
2023/11/17 07:35:09;;;;;;;6.30;4.50;;;;;;;5.85;100.00;100052.27;105766;1254;72855;-61
2023/11/17 07:37:37;;;;;;;7.10;4.50;;;;;;;5.85;100.00;100056.59;105721;1256;64642;-61
2023/11/17 07:40:06;;;;;;;6.30;4.40;;;;;;;5.86;100.00;100059.41;105706;1254;71462;-60
2023/11/17 07:42:34;;;;;;;7.70;4.60;;;;;;;5.86;100.00;100061.45;105857;1251;61785;-61
2023/11/17 07:45:03;;;;;;;7.40;5.40;;;;;;;5.88;100.00;100061.62;105701;1258;59538;-60
2023/11/17 07:47:33;;;;;;;8.50;5.70;;;;;;;5.89;100.00;100064.63;105765;1251;71832;-62
2023/11/17 07:50:03;;;;;;;7.00;5.30;;;;;;;5.90;100.00;100066.94;105760;1251;66955;-62
2023/11/17 07:52:31;;;;;;;6.80;5.40;;;;;;;5.89;100.00;100070.66;105735;1251;72717;-62
2023/11/17 07:55:00;;;;;;;7.90;5.30;;;;;;;5.88;100.00;100070.45;105696;1251;61745;-62
2023/11/17 07:57:28;;;;;;;6.60;5.00;;;;;;;5.85;100.00;100073.05;105670;1251;60057;-62
2023/11/17 07:59:56;;;;;;;6.50;5.00;;;;;;;5.81;100.00;100075.83;105660;1254;73050;-64
2023/11/17 08:02:24;;;;;;;6.90;4.80;;;;;;;5.79;100.00;100072.76;105708;1257;65681;-63
2023/11/17 08:04:52;;;;;;;7.10;5.50;;;;;;;5.78;100.00;100072.54;105618;1251;72693;-64
2023/11/17 08:07:20;;;;;;;6.90;4.80;;;;;;;5.77;100.00;100070.21;105791;1253;60377;-64
2023/11/17 08:09:48;;;;;;;6.70;4.80;;;;;;;5.76;100.00;100072.23;105589;1251;61309;-64
2023/11/17 08:12:16;;;;;;;6.80;5.00;;;;;;;5.77;100.00;100072.15;105886;1257;73111;-64
2023/11/17 08:14:44;;;;;;;8.40;6.70;;;;;;;5.77;100.00;100071.29;105801;1254;66641;-63
2023/11/17 08:17:12;;;;;;;9.10;7.40;;;;;;;5.76;100.00;100073.27;105964;1250;72366;-62
2023/11/17 08:19:40;;;;;;;8.90;7.30;;;;;;;5.74;100.00;100075.46;105821;1256;63821;-63
2023/11/17 08:22:08;;;;;;;11.00;8.40;;;;;;;5.74;100.00;100079.12;105725;1250;59529;-64
2023/11/17 08:24:36;;;;;;;8.60;6.80;;;;;;;5.76;100.00;100081.88;105418;1256;75652;-63
2023/11/17 08:27:04;;;;;;;9.00;7.10;;;;;;;5.80;100.00;100083.73;105801;1257;65743;-63
2023/11/17 08:29:31;;;;;;;8.10;5.60;;;;;;;5.83;100.00;100089.08;105542;1257;71452;-62
2023/11/17 08:31:59;;;;;;;8.10;5.80;;;;;;;5.89;100.00;100095.54;105753;1257;63020;-65
2023/11/17 08:34:27;;;;;;;6.90;5.20;;;;;;;5.92;100.00;100100.44;105588;1256;59560;-62
2023/11/17 08:36:56;;;;;;;6.40;4.40;;;;;;;5.94;100.00;100100.90;105484;1255;72077;-62
2023/11/17 08:39:26;;;;;;;6.70;4.80;;;;;;;5.97;100.00;100104.41;105457;1254;65659;-64
2023/11/17 08:41:55;;;;;;;8.20;5.10;;;;;;;5.99;100.00;100104.23;105517;1251;72737;-64
2023/11/17 08:44:23;;;;;;;6.50;4.40;;;;;;;5.99;100.00;100109.90;105570;1257;60474;-64
2023/11/17 08:46:52;;;;;;;6.10;4.50;;;;;;;6.00;100.00;100112.13;105515;1251;59724;-63
2023/11/17 08:49:23;;;;;;;7.20;5.20;;;;;;;6.01;100.00;100117.14;105586;1253;71834;-63
2023/11/17 08:51:51;;;;;;;6.50;4.30;;;;;;;6.01;100.00;100120.86;105463;1257;68339;-64
2023/11/17 08:54:19;;;;;;;5.40;4.40;;;;;;;6.03;100.00;100121.73;105507;1257;70557;-62
2023/11/17 08:56:47;;;;;;;6.70;4.60;;;;;;;6.04;100.00;100126.48;105259;1257;60645;-62
2023/11/17 08:59:15;;;;;;;6.60;4.40;;;;;;;6.04;100.00;100131.23;105530;1251;60987;-63
2023/11/17 09:01:43;;;;;;;6.60;4.60;;;;;;;6.05;100.00;100133.17;105520;1251;71806;-64
2023/11/17 09:04:11;;;;;;;6.70;4.20;;;;;;;6.06;100.00;100134.71;105682;1251;67514;-62
2023/11/17 09:06:40;;;;;;;6.40;4.60;;;;;;;6.06;100.00;100135.75;105536;1251;72699;-64
2023/11/17 09:09:13;;;;;;;6.90;4.90;;;;;;;6.05;100.00;100139.45;105536;1257;61703;-64
2023/11/17 09:11:47;;;;;;;7.10;5.20;;;;;;;6.03;100.00;100139.71;105852;1251;59704;-65
2023/11/17 09:14:15;;;;;;;6.40;4.80;;;;;;;6.03;100.00;100141.61;105703;1251;73091;-63
2023/11/17 09:16:44;;;;;;;9.80;4.70;;;;;;;6.04;100.00;100140.80;105723;1251;66975;-63
2023/11/17 09:19:16;;;;;;;6.10;4.00;;;;;;;6.07;100.00;100140.85;105507;1257;74417;-65
2023/11/17 09:21:44;;;;;;;7.10;4.60;;;;;;;6.10;100.00;100145.55;105667;1258;59698;-64
2023/11/17 09:24:12;;;;;;;7.10;4.20;;;;;;;6.13;100.00;100146.92;105422;1251;59580;-65
2023/11/17 09:26:40;;;;;;;6.50;4.20;;;;;;;6.16;100.00;100145.95;105553;1251;73099;-63
2023/11/17 09:29:07;;;;;;;4.90;3.60;;;;;;;6.19;100.00;100147.42;105255;1251;67052;-62
2023/11/17 09:31:37;;;;;;;5.30;3.80;;;;;;;6.19;100.00;100147.00;105261;1250;73215;-63
2023/11/17 09:34:08;;;;;;;4.50;3.20;;;;;;;6.18;100.00;100148.14;105761;1251;61649;-62
2023/11/17 09:36:40;;;;;;;4.80;3.50;;;;;;;6.18;100.00;100149.17;105737;1251;60055;-63
2023/11/17 09:39:09;;;;;;;5.10;3.50;;;;;;;6.18;100.00;100144.58;105445;1251;71851;-63
2023/11/17 09:41:38;;;;;;;5.10;3.30;;;;;;;6.14;100.00;100143.35;105725;1256;69248;-62
2023/11/17 09:44:06;;;;;;;6.60;3.70;;;;;;;6.12;100.00;100146.71;105859;1251;72736;-62
2023/11/17 09:46:42;;;;;;;4.60;3.10;;;;;;;6.13;100.00;100150.76;105725;1251;61812;-63
2023/11/17 09:49:10;;;;;;;4.40;2.80;;;;;;;6.18;100.00;100153.14;105581;1250;60579;-62
2023/11/17 09:51:38;;;;;;;4.00;2.70;;;;;;;6.24;100.00;100153.71;105557;1250;72734;-62
2023/11/17 09:54:06;;;;;;;4.70;2.90;;;;;;;6.31;100.00;100157.29;105740;1257;68844;-63
2023/11/17 09:56:34;;;;;;;7.80;5.30;;;;;;;6.38;100.00;100156.83;105750;1254;74592;-63
2023/11/17 09:59:02;;;;;;;8.00;5.60;;;;;;;6.47;100.00;100163.61;105751;1251;62866;-63
2023/11/17 10:01:34;;;;;;;4.90;3.30;;;;;;;6.58;100.00;100167.71;105680;1254;62557;-62
2023/11/17 10:04:05;;;;;;;5.40;3.00;;;;;;;6.68;100.00;100174.08;105682;1251;77181;-62
2023/11/17 10:06:33;;;;;;;4.60;2.40;;;;;;;6.75;100.00;100181.05;105670;1259;65670;-62
2023/11/17 10:09:01;;;;;;;4.70;2.40;;;;;;;6.79;100.00;100184.27;105533;1251;73022;-62
2023/11/17 10:11:30;;;;;;;3.60;2.30;;;;;;;6.83;100.00;100185.30;105458;1251;61703;-62
2023/11/17 10:14:00;;;;;;;3.40;1.80;;;;;;;6.87;100.00;100181.03;105895;1250;62487;-61
2023/11/17 10:16:28;;;;;;;3.90;2.40;;;;;;;6.90;100.00;100179.16;105841;1251;75650;-62
2023/11/17 10:18:57;;;;;;;3.30;1.90;;;;;;;6.93;100.00;100171.41;105661;1257;69856;-62
2023/11/17 10:21:25;;;;;;;2.60;1.50;;;;;;;6.96;100.00;100167.46;105637;1257;73164;-62
2023/11/17 10:23:53;;;;;;;5.10;2.00;;;;;;;7.01;100.00;100164.86;105737;1256;60524;-61
2023/11/17 10:26:22;;;;;;;2.70;1.50;;;;;;;7.07;100.00;100165.30;105774;1257;62526;-62
2023/11/17 10:28:51;;;;;;;3.10;1.60;;;;;;;7.12;100.00;100162.05;105693;1252;75328;-61
2023/11/17 10:31:19;;;;;;;2.90;1.20;;;;;;;7.16;100.00;100165.67;105664;1251;67167;-61
2023/11/17 10:33:47;;;;;;;2.50;1.30;;;;;;;7.23;100.00;100169.14;105688;1251;72906;-61
2023/11/17 10:36:16;;;;;;;2.40;1.30;;;;;;;7.28;100.00;100169.40;105550;1253;64196;-61
2023/11/17 10:38:45;;;;;;;2.90;1.40;;;;;;;7.36;100.00;100167.89;105749;1251;60654;-61
2023/11/17 10:41:22;;;;;;;2.50;1.40;;;;;;;7.46;100.00;100169.21;105749;1250;76140;-60
2023/11/17 10:43:53;;;;;;;2.40;1.30;;;;;;;7.57;100.00;100164.74;105599;1256;64707;-59
2023/11/17 10:46:22;;;;;;;2.10;1.00;;;;;;;7.65;100.00;100169.50;105892;1257;70458;-61
2023/11/17 10:48:51;;;;;;;3.40;1.70;;;;;;;7.68;100.00;100163.06;105740;1257;63819;-61
2023/11/17 10:51:21;;;;;;;1.70;0.80;;;;;;;7.69;100.00;100158.80;105711;1251;63275;-61
2023/11/17 10:54:16;;;;;;;2.40;1.20;;;;;;;7.70;100.00;100161.67;109466;1250;75868;-62
2023/11/17 10:56:45;;;;;;;2.00;1.10;;;;;;;7.72;100.00;100167.53;109473;1250;65645;-59
2023/11/17 10:59:15;;;;;;;2.40;1.20;;;;;;;7.75;100.00;100170.05;109467;1251;72793;-60
2023/11/17 11:01:47;;;;;;;1.80;1.10;;;;;;;7.82;100.00;100169.69;109421;1250;59111;-60
2023/11/17 11:04:17;;;;;;;2.10;0.80;;;;;;;7.87;100.00;100167.91;109516;1250;62450;-59
2023/11/17 11:06:45;;;;;;;2.10;1.00;;;;;;;7.91;100.00;100167.96;109534;1251;75532;-59
2023/11/17 11:09:19;;;;;;;2.50;1.00;;;;;;;7.94;100.00;100165.81;109552;1251;69901;-59
2023/11/17 11:11:50;;;;;;;2.50;1.20;;;;;;;7.95;100.00;100162.74;109518;1250;71119;-59
2023/11/17 11:14:20;;;;;;;2.70;1.40;;;;;;;7.94;100.00;100159.03;109509;1250;62170;-59
2023/11/17 11:16:48;;;;;;;2.90;1.20;;;;;;;7.91;100.00;100159.71;109497;1250;62171;-59
2023/11/17 11:19:17;;;;;;;3.10;1.70;;;;;;;7.88;100.00;100162.17;109420;1251;75306;-61
2023/11/17 11:22:00;;;;;;;2.40;1.20;;;;;;;7.82;100.00;100166.34;109411;1251;66849;-59
2023/11/17 11:24:36;;;;;;;1.90;1.10;;;;;;;7.78;100.00;100167.13;109324;1251;72941;-59
2023/11/17 11:27:06;;;;;;;2.10;1.00;;;;;;;7.75;100.00;100162.95;109296;1250;61911;-61
2023/11/17 11:29:38;;;;;;;2.50;1.10;;;;;;;7.68;100.00;100161.12;109517;1250;58323;-61
2023/11/17 11:32:08;;;;;;;2.40;1.10;;;;;;;7.60;100.00;100153.56;109330;1251;74909;-60
2023/11/17 11:34:36;;;;;;;2.20;1.10;;;;;;;7.54;100.00;100153.83;109284;1251;67808;-63
2023/11/17 11:37:04;;;;;;;2.80;1.30;;;;;;;7.50;100.00;100155.65;109296;1251;71402;-59
2023/11/17 11:39:32;;;;;;;2.30;1.20;;;;;;;7.45;100.00;100157.90;109259;1251;63699;-58